Ever Ulysses — 9V7962 — position and weather

sailwx.info

Track history (hours):
 
Tides and Currents Weather Stations Pressure Air Temp Water Temp Dewpoint Dewpoint Depression Visibility Wind Speed Wind Dir Waves Ship Positions

Ever Ulysses

Last reported at 2014-Oct-17 07:33 UTC. Time now 2014-Oct-22 04:52 UTC.
Position N 01°11' E 103°48'.

Length 285 m; draft 11.5 m.

Type: Ship (hazmat cat D). MMSI: 564442000.

Date/timePositionNaut miles runAvg speedWind from/ knotsBaromVisibWave heightAir tempDewpointWater temp
2014-Oct-17 07:33N 01°11' E 103°48'1111.0
2014-Oct-17 06:34N 01°15' E 103°58'1111.0
2014-Oct-17 05:32N 01°17' E 104°10'  
2014-Oct-14 03:28N 22°12' E 114°11'1310.8
2014-Oct-14 02:17N 22°21' E 114°02'811.2
2014-Oct-14 01:33N 22°24' E 113°53'3 3.2
2014-Oct-14 00:32N 22°27' E 113°53'0 0.1
2014-Oct-13 23:33N 22°27' E 113°53'0 0.0
2014-Oct-13 22:33N 22°27' E 113°53'0 0.0
2014-Oct-13 21:33N 22°27' E 113°53'0 0.0
2014-Oct-13 20:33N 22°27' E 113°53'0 0.1
2014-Oct-13 19:33N 22°27' E 113°53'0 0.1
2014-Oct-13 18:33N 22°27' E 113°53'0 0.0
2014-Oct-13 17:32N 22°27' E 113°53'0 0.0
2014-Oct-13 16:33N 22°27' E 113°53'0 0.0
2014-Oct-13 15:33N 22°27' E 113°53'0 0.0
2014-Oct-13 14:30N 22°27' E 113°53'0 0.0
2014-Oct-13 13:33N 22°27' E 113°53'0 0.0
2014-Oct-13 12:33N 22°27' E 113°53'0 0.1
2014-Oct-13 11:33N 22°27' E 113°53'0 0.1
2014-Oct-13 10:33N 22°27' E 113°53'7 6.8
2014-Oct-13 09:31N 22°21' E 113°57'1010.1
2014-Oct-13 08:29N 22°16' E 114°07'21515.4
2014-Oct-12 18:29N 23°26' E 117°48'1718.2
2014-Oct-12 17:34N 23°34' E 118°04'1918.6
2014-Oct-12 16:34N 23°47' E 118°19'1818.4
2014-Oct-12 15:33N 23°59' E 118°33'1817.9
2014-Oct-12 14:33N 24°09' E 118°50'1616.4
2014-Oct-12 13:33N 24°23' E 118°60'1817.4
2014-Oct-12 12:32N 24°32' E 119°17'1818.2
2014-Oct-12 11:33N 24°44' E 119°31'2019.6
2014-Oct-12 10:33N 24°58' E 119°47'1919.3
2014-Oct-12 09:33N 25°08' E 120°04'270 5.7
2014-Oct-10 10:13N 29°02' E 122°34'1218.2
2014-Oct-10 09:32N 29°15' E 122°32'2019.8
2014-Oct-10 08:31N 29°35' E 122°28'1515.8
2014-Oct-10 07:33N 29°46' E 122°17'1313.4
2014-Oct-10 06:33N 29°55' E 122°06'4 2.8
2014-Oct-10 05:19N 29°54' E 122°02'0 0.0
2014-Oct-10 04:31N 29°54' E 122°02'0 0.0
2014-Oct-10 02:19N 29°54' E 122°02'0 0.0
2014-Oct-10 01:19N 29°54' E 122°02'0 0.0
2014-Oct-10 00:25N 29°54' E 122°02'0 0.0
2014-Oct-09 22:31N 29°54' E 122°02'0 0.0
2014-Oct-09 19:19N 29°54' E 122°02'0 0.1
2014-Oct-09 18:33N 29°54' E 122°02'7 7.3
2014-Oct-09 17:33N 29°54' E 122°10'1110.9
2014-Oct-09 16:33N 29°46' E 122°18'8 8.1
2014-Oct-09 15:33N 29°41' E 122°26'4 4.1
2014-Oct-09 14:31N 29°39' E 122°30'2 1.9
2014-Oct-09 13:33N 29°40' E 122°32'3 2.5
2014-Oct-09 12:32N 29°41' E 122°35'3 3.3
2014-Oct-09 11:33N 29°43' E 122°37'10 9.7
2014-Oct-09 10:31N 29°53' E 122°41'2612.9
2014-Oct-09 08:32N 30°14' E 122°58'1414.7
2014-Oct-09 07:33N 30°23' E 122°46'1515.2
2014-Oct-09 06:33N 30°31' E 122°31'1413.8
2014-Oct-09 05:33N 30°33' E 122°15'9 0.9
2014-Oct-08 19:24N 30°37' E 122°05'8 9.3
2014-Oct-08 18:33N 30°34' E 122°13'6 5.4
2014-Oct-08 17:21N 30°33' E 122°21'8 9.7
2014-Oct-08 16:33N 30°31' E 122°29'3 0.5
2014-Oct-08 11:29N 30°29' E 122°32'0 0.2
2014-Oct-08 10:23N 30°29' E 122°32'0 0.1
2014-Oct-08 09:23N 30°29' E 122°32'0 0.1
2014-Oct-08 04:29N 30°29' E 122°32'0 0.2
2014-Oct-08 03:29N 30°29' E 122°32'0 0.0
2014-Oct-08 01:29N 30°29' E 122°32'0 0.0
2014-Oct-08 00:11N 30°29' E 122°32'0 0.1
2014-Oct-07 23:23N 30°29' E 122°32'0 0.1
2014-Oct-07 19:23N 30°29' E 122°32'0 0.0
2014-Oct-07 17:23N 30°29' E 122°32'0 0.3
2014-Oct-07 16:29N 30°29' E 122°32'0 0.0
2014-Oct-07 10:05N 30°29' E 122°32'  
Track history (hours):
 
Tides and Currents Weather Stations Pressure Air Temp Water Temp Dewpoint Dewpoint Depression Visibility Wind Speed Wind Dir Waves Ship Positions

Ever Ulysses

Last reported at 2014-Oct-17 07:33 UTC. Time now 2014-Oct-22 04:52 UTC.
Position N 01°11' E 103°48'.

Length 285 m; draft 11.5 m.

Type: Ship (hazmat cat D). MMSI: 564442000.

Date/timePositionNaut miles runAvg speedWind from/ knotsBaromVisibWave heightAir tempDewpointWater temp
2014-Oct-17 07:33N 01°11' E 103°48'1111.0
2014-Oct-17 06:34N 01°15' E 103°58'1111.0
2014-Oct-17 05:32N 01°17' E 104°10'  
2014-Oct-14 03:28N 22°12' E 114°11'1310.8
2014-Oct-14 02:17N 22°21' E 114°02'811.2
2014-Oct-14 01:33N 22°24' E 113°53'3 3.2
2014-Oct-14 00:32N 22°27' E 113°53'0 0.1
2014-Oct-13 23:33N 22°27' E 113°53'0 0.0
2014-Oct-13 22:33N 22°27' E 113°53'0 0.0
2014-Oct-13 21:33N 22°27' E 113°53'0 0.0
2014-Oct-13 20:33N 22°27' E 113°53'0 0.1
2014-Oct-13 19:33N 22°27' E 113°53'0 0.1
2014-Oct-13 18:33N 22°27' E 113°53'0 0.0
2014-Oct-13 17:32N 22°27' E 113°53'0 0.0
2014-Oct-13 16:33N 22°27' E 113°53'0 0.0
2014-Oct-13 15:33N 22°27' E 113°53'0 0.0
2014-Oct-13 14:30N 22°27' E 113°53'0 0.0
2014-Oct-13 13:33N 22°27' E 113°53'0 0.0
2014-Oct-13 12:33N 22°27' E 113°53'0 0.1
2014-Oct-13 11:33N 22°27' E 113°53'0 0.1
2014-Oct-13 10:33N 22°27' E 113°53'7 6.8
2014-Oct-13 09:31N 22°21' E 113°57'1010.1
2014-Oct-13 08:29N 22°16' E 114°07'21515.4
2014-Oct-12 18:29N 23°26' E 117°48'1718.2
2014-Oct-12 17:34N 23°34' E 118°04'1918.6
2014-Oct-12 16:34N 23°47' E 118°19'1818.4
2014-Oct-12 15:33N 23°59' E 118°33'1817.9
2014-Oct-12 14:33N 24°09' E 118°50'1616.4
2014-Oct-12 13:33N 24°23' E 118°60'1817.4
2014-Oct-12 12:32N 24°32' E 119°17'1818.2
2014-Oct-12 11:33N 24°44' E 119°31'2019.6
2014-Oct-12 10:33N 24°58' E 119°47'1919.3
2014-Oct-12 09:33N 25°08' E 120°04'270 5.7
2014-Oct-10 10:13N 29°02' E 122°34'1218.2
2014-Oct-10 09:32N 29°15' E 122°32'2019.8
2014-Oct-10 08:31N 29°35' E 122°28'1515.8
2014-Oct-10 07:33N 29°46' E 122°17'1313.4
2014-Oct-10 06:33N 29°55' E 122°06'4 2.8
2014-Oct-10 05:19N 29°54' E 122°02'0 0.0
2014-Oct-10 04:31N 29°54' E 122°02'0 0.0
2014-Oct-10 02:19N 29°54' E 122°02'0 0.0
2014-Oct-10 01:19N 29°54' E 122°02'0 0.0
2014-Oct-10 00:25N 29°54' E 122°02'0 0.0
2014-Oct-09 22:31N 29°54' E 122°02'0 0.0
2014-Oct-09 19:19N 29°54' E 122°02'0 0.1
2014-Oct-09 18:33N 29°54' E 122°02'7 7.3
2014-Oct-09 17:33N 29°54' E 122°10'1110.9
2014-Oct-09 16:33N 29°46' E 122°18'8 8.1
2014-Oct-09 15:33N 29°41' E 122°26'4 4.1
2014-Oct-09 14:31N 29°39' E 122°30'2 1.9
2014-Oct-09 13:33N 29°40' E 122°32'3 2.5
2014-Oct-09 12:32N 29°41' E 122°35'3 3.3
2014-Oct-09 11:33N 29°43' E 122°37'10 9.7
2014-Oct-09 10:31N 29°53' E 122°41'2612.9
2014-Oct-09 08:32N 30°14' E 122°58'1414.7
2014-Oct-09 07:33N 30°23' E 122°46'1515.2
2014-Oct-09 06:33N 30°31' E 122°31'1413.8
2014-Oct-09 05:33N 30°33' E 122°15'9 0.9
2014-Oct-08 19:24N 30°37' E 122°05'8 9.3
2014-Oct-08 18:33N 30°34' E 122°13'6 5.4
2014-Oct-08 17:21N 30°33' E 122°21'8 9.7
2014-Oct-08 16:33N 30°31' E 122°29'3 0.5
2014-Oct-08 11:29N 30°29' E 122°32'0 0.2
2014-Oct-08 10:23N 30°29' E 122°32'0 0.1
2014-Oct-08 09:23N 30°29' E 122°32'0 0.1
2014-Oct-08 04:29N 30°29' E 122°32'0 0.2
2014-Oct-08 03:29N 30°29' E 122°32'0 0.0
2014-Oct-08 01:29N 30°29' E 122°32'0 0.0
2014-Oct-08 00:11N 30°29' E 122°32'0 0.1
2014-Oct-07 23:23N 30°29' E 122°32'0 0.1
2014-Oct-07 19:23N 30°29' E 122°32'0 0.0
2014-Oct-07 17:23N 30°29' E 122°32'0 0.3
2014-Oct-07 16:29N 30°29' E 122°32'0 0.0
2014-Oct-07 10:05N 30°29' E 122°32'  

Dump ship's entire track history